sensor_id;sensor_type;location;lat;lon;timestamp;P1;durP1;ratioP1;P2;durP2;ratioP2
11598;SDS011;5855;48.840;9.188;2023-07-29T00:02:11;4.82;;;3.20;;
11598;SDS011;5855;48.840;9.188;2023-07-29T00:04:38;2.80;;;2.47;;
11598;SDS011;5855;48.840;9.188;2023-07-29T00:07:05;3.83;;;2.92;;
11598;SDS011;5855;48.840;9.188;2023-07-29T00:09:32;4.13;;;2.97;;
11598;SDS011;5855;48.840;9.188;2023-07-29T00:12:00;3.17;;;2.88;;
11598;SDS011;5855;48.840;9.188;2023-07-29T00:14:27;3.60;;;3.22;;
11598;SDS011;5855;48.840;9.188;2023-07-29T00:16:53;4.50;;;3.40;;
11598;SDS011;5855;48.840;9.188;2023-07-29T00:19:20;3.58;;;2.75;;
11598;SDS011;5855;48.840;9.188;2023-07-29T00:21:48;2.85;;;2.65;;
11598;SDS011;5855;48.840;9.188;2023-07-29T00:24:15;4.20;;;2.67;;
11598;SDS011;5855;48.840;9.188;2023-07-29T00:26:42;4.40;;;3.00;;
11598;SDS011;5855;48.840;9.188;2023-07-29T00:29:10;3.58;;;2.90;;
11598;SDS011;5855;48.840;9.188;2023-07-29T00:31:37;3.45;;;2.80;;
11598;SDS011;5855;48.840;9.188;2023-07-29T00:34:03;3.63;;;3.03;;
11598;SDS011;5855;48.840;9.188;2023-07-29T00:36:30;3.70;;;2.83;;
11598;SDS011;5855;48.840;9.188;2023-07-29T00:38:57;5.72;;;3.00;;
11598;SDS011;5855;48.840;9.188;2023-07-29T00:41:24;2.85;;;2.55;;
11598;SDS011;5855;48.840;9.188;2023-07-29T00:43:51;3.10;;;2.50;;
11598;SDS011;5855;48.840;9.188;2023-07-29T00:46:20;2.70;;;2.50;;
11598;SDS011;5855;48.840;9.188;2023-07-29T00:48:48;3.75;;;2.50;;
11598;SDS011;5855;48.840;9.188;2023-07-29T00:51:14;3.22;;;2.30;;
11598;SDS011;5855;48.840;9.188;2023-07-29T00:53:41;2.72;;;2.53;;
11598;SDS011;5855;48.840;9.188;2023-07-29T00:56:10;3.05;;;2.42;;
11598;SDS011;5855;48.840;9.188;2023-07-29T00:58:38;4.07;;;2.35;;
11598;SDS011;5855;48.840;9.188;2023-07-29T01:01:04;3.10;;;2.80;;
11598;SDS011;5855;48.840;9.188;2023-07-29T01:03:33;4.13;;;2.95;;
11598;SDS011;5855;48.840;9.188;2023-07-29T01:06:04;3.15;;;2.80;;
11598;SDS011;5855;48.840;9.188;2023-07-29T01:08:42;3.40;;;3.10;;
11598;SDS011;5855;48.840;9.188;2023-07-29T01:11:17;4.40;;;2.78;;
11598;SDS011;5855;48.840;9.188;2023-07-29T01:13:56;3.78;;;2.90;;
11598;SDS011;5855;48.840;9.188;2023-07-29T01:16:29;3.83;;;2.70;;
11598;SDS011;5855;48.840;9.188;2023-07-29T01:19:02;6.28;;;3.13;;
11598;SDS011;5855;48.840;9.188;2023-07-29T01:21:31;3.55;;;2.60;;
11598;SDS011;5855;48.840;9.188;2023-07-29T01:24:02;3.10;;;2.80;;
11598;SDS011;5855;48.840;9.188;2023-07-29T01:26:29;3.72;;;2.47;;
11598;SDS011;5855;48.840;9.188;2023-07-29T01:28:56;3.65;;;3.20;;
11598;SDS011;5855;48.840;9.188;2023-07-29T01:31:26;3.10;;;2.80;;
11598;SDS011;5855;48.840;9.188;2023-07-29T01:33:59;2.75;;;2.53;;
11598;SDS011;5855;48.840;9.188;2023-07-29T01:36:32;2.90;;;2.58;;
11598;SDS011;5855;48.840;9.188;2023-07-29T01:39:06;4.13;;;2.60;;
11598;SDS011;5855;48.840;9.188;2023-07-29T01:41:33;3.58;;;2.72;;
11598;SDS011;5855;48.840;9.188;2023-07-29T01:44:01;5.13;;;2.50;;
11598;SDS011;5855;48.840;9.188;2023-07-29T01:46:29;4.93;;;2.92;;
11598;SDS011;5855;48.840;9.188;2023-07-29T01:48:58;5.03;;;2.60;;
11598;SDS011;5855;48.840;9.188;2023-07-29T01:51:24;2.97;;;2.53;;
11598;SDS011;5855;48.840;9.188;2023-07-29T01:53:51;2.90;;;2.40;;
11598;SDS011;5855;48.840;9.188;2023-07-29T01:56:19;3.20;;;2.47;;
11598;SDS011;5855;48.840;9.188;2023-07-29T01:58:46;3.30;;;2.70;;
11598;SDS011;5855;48.840;9.188;2023-07-29T02:01:13;2.70;;;2.35;;
11598;SDS011;5855;48.840;9.188;2023-07-29T02:03:40;3.25;;;2.40;;
11598;SDS011;5855;48.840;9.188;2023-07-29T02:06:07;2.50;;;2.30;;
11598;SDS011;5855;48.840;9.188;2023-07-29T02:08:34;6.13;;;2.58;;
11598;SDS011;5855;48.840;9.188;2023-07-29T02:11:01;2.65;;;2.45;;
11598;SDS011;5855;48.840;9.188;2023-07-29T02:13:29;3.65;;;2.38;;
11598;SDS011;5855;48.840;9.188;2023-07-29T02:15:56;4.43;;;2.70;;
11598;SDS011;5855;48.840;9.188;2023-07-29T02:18:23;3.95;;;2.30;;
11598;SDS011;5855;48.840;9.188;2023-07-29T02:20:50;2.78;;;2.28;;
11598;SDS011;5855;48.840;9.188;2023-07-29T02:23:16;3.47;;;2.28;;
11598;SDS011;5855;48.840;9.188;2023-07-29T02:25:44;4.43;;;2.10;;
11598;SDS011;5855;48.840;9.188;2023-07-29T02:28:10;2.78;;;2.30;;
11598;SDS011;5855;48.840;9.188;2023-07-29T02:30:40;3.33;;;2.35;;
11598;SDS011;5855;48.840;9.188;2023-07-29T02:33:09;2.38;;;2.17;;
11598;SDS011;5855;48.840;9.188;2023-07-29T02:35:36;2.33;;;2.10;;
11598;SDS011;5855;48.840;9.188;2023-07-29T02:38:03;3.38;;;2.33;;
11598;SDS011;5855;48.840;9.188;2023-07-29T02:40:29;3.47;;;2.47;;
11598;SDS011;5855;48.840;9.188;2023-07-29T02:42:57;4.82;;;2.40;;
11598;SDS011;5855;48.840;9.188;2023-07-29T02:45:24;3.03;;;2.40;;
11598;SDS011;5855;48.840;9.188;2023-07-29T02:47:52;4.75;;;2.35;;
11598;SDS011;5855;48.840;9.188;2023-07-29T02:50:18;2.90;;;2.65;;
11598;SDS011;5855;48.840;9.188;2023-07-29T02:52:45;3.53;;;2.40;;
11598;SDS011;5855;48.840;9.188;2023-07-29T02:55:12;2.55;;;2.35;;
11598;SDS011;5855;48.840;9.188;2023-07-29T02:57:39;3.60;;;2.55;;
11598;SDS011;5855;48.840;9.188;2023-07-29T03:00:06;4.90;;;3.05;;
11598;SDS011;5855;48.840;9.188;2023-07-29T03:02:34;5.38;;;2.60;;
11598;SDS011;5855;48.840;9.188;2023-07-29T03:05:02;2.80;;;2.47;;
11598;SDS011;5855;48.840;9.188;2023-07-29T03:07:30;4.07;;;3.00;;
11598;SDS011;5855;48.840;9.188;2023-07-29T03:09:56;2.80;;;2.50;;
11598;SDS011;5855;48.840;9.188;2023-07-29T03:12:23;5.85;;;2.80;;
11598;SDS011;5855;48.840;9.188;2023-07-29T03:14:50;4.10;;;2.85;;
11598;SDS011;5855;48.840;9.188;2023-07-29T03:17:17;4.03;;;2.80;;
11598;SDS011;5855;48.840;9.188;2023-07-29T03:19:44;4.00;;;2.47;;
11598;SDS011;5855;48.840;9.188;2023-07-29T03:22:12;2.97;;;2.72;;
11598;SDS011;5855;48.840;9.188;2023-07-29T03:24:39;2.53;;;2.33;;
11598;SDS011;5855;48.840;9.188;2023-07-29T03:27:07;2.85;;;2.55;;
11598;SDS011;5855;48.840;9.188;2023-07-29T03:29:34;5.38;;;2.35;;
11598;SDS011;5855;48.840;9.188;2023-07-29T03:32:01;2.92;;;2.20;;
11598;SDS011;5855;48.840;9.188;2023-07-29T03:34:28;3.08;;;2.42;;
11598;SDS011;5855;48.840;9.188;2023-07-29T03:36:55;2.38;;;2.03;;
11598;SDS011;5855;48.840;9.188;2023-07-29T03:39:23;2.70;;;2.00;;
11598;SDS011;5855;48.840;9.188;2023-07-29T03:41:50;2.20;;;2.00;;
11598;SDS011;5855;48.840;9.188;2023-07-29T03:44:17;2.50;;;2.30;;
11598;SDS011;5855;48.840;9.188;2023-07-29T03:46:44;2.83;;;2.00;;
11598;SDS011;5855;48.840;9.188;2023-07-29T03:49:11;2.75;;;2.00;;
11598;SDS011;5855;48.840;9.188;2023-07-29T03:51:37;2.17;;;2.00;;
11598;SDS011;5855;48.840;9.188;2023-07-29T03:54:04;4.25;;;2.10;;
11598;SDS011;5855;48.840;9.188;2023-07-29T03:56:32;2.30;;;2.10;;
11598;SDS011;5855;48.840;9.188;2023-07-29T03:59:02;3.22;;;2.10;;
11598;SDS011;5855;48.840;9.188;2023-07-29T04:01:29;2.55;;;1.77;;
11598;SDS011;5855;48.840;9.188;2023-07-29T04:03:56;2.47;;;1.98;;
11598;SDS011;5855;48.840;9.188;2023-07-29T04:06:22;3.47;;;2.25;;
11598;SDS011;5855;48.840;9.188;2023-07-29T04:08:49;2.08;;;1.85;;
11598;SDS011;5855;48.840;9.188;2023-07-29T04:11:16;2.22;;;1.98;;
11598;SDS011;5855;48.840;9.188;2023-07-29T04:13:44;3.08;;;1.98;;
11598;SDS011;5855;48.840;9.188;2023-07-29T04:16:11;2.47;;;2.00;;
11598;SDS011;5855;48.840;9.188;2023-07-29T04:18:38;3.15;;;2.10;;
11598;SDS011;5855;48.840;9.188;2023-07-29T04:21:05;2.60;;;2.00;;
11598;SDS011;5855;48.840;9.188;2023-07-29T04:23:31;2.60;;;2.38;;
11598;SDS011;5855;48.840;9.188;2023-07-29T04:25:58;2.95;;;2.10;;
11598;SDS011;5855;48.840;9.188;2023-07-29T04:28:25;2.78;;;2.10;;
11598;SDS011;5855;48.840;9.188;2023-07-29T04:30:53;3.15;;;2.50;;
11598;SDS011;5855;48.840;9.188;2023-07-29T04:33:20;5.53;;;2.05;;
11598;SDS011;5855;48.840;9.188;2023-07-29T04:35:47;4.60;;;2.10;;
11598;SDS011;5855;48.840;9.188;2023-07-29T04:38:14;3.20;;;2.08;;
11598;SDS011;5855;48.840;9.188;2023-07-29T04:40:41;3.30;;;2.10;;
11598;SDS011;5855;48.840;9.188;2023-07-29T04:43:08;5.28;;;2.33;;
11598;SDS011;5855;48.840;9.188;2023-07-29T04:45:34;2.83;;;1.83;;
11598;SDS011;5855;48.840;9.188;2023-07-29T04:48:03;2.08;;;1.90;;
11598;SDS011;5855;48.840;9.188;2023-07-29T04:50:30;2.58;;;1.90;;
11598;SDS011;5855;48.840;9.188;2023-07-29T04:52:56;3.60;;;2.38;;
11598;SDS011;5855;48.840;9.188;2023-07-29T04:55:23;3.63;;;2.03;;
11598;SDS011;5855;48.840;9.188;2023-07-29T04:57:50;2.35;;;1.92;;
11598;SDS011;5855;48.840;9.188;2023-07-29T05:00:17;2.40;;;1.90;;
11598;SDS011;5855;48.840;9.188;2023-07-29T05:02:44;6.03;;;2.35;;
11598;SDS011;5855;48.840;9.188;2023-07-29T05:05:12;3.95;;;2.30;;
11598;SDS011;5855;48.840;9.188;2023-07-29T05:07:39;3.50;;;2.40;;
11598;SDS011;5855;48.840;9.188;2023-07-29T05:10:06;3.70;;;2.38;;
11598;SDS011;5855;48.840;9.188;2023-07-29T05:12:34;3.20;;;2.47;;
11598;SDS011;5855;48.840;9.188;2023-07-29T05:15:01;3.30;;;2.80;;
11598;SDS011;5855;48.840;9.188;2023-07-29T05:17:28;3.08;;;2.30;;
11598;SDS011;5855;48.840;9.188;2023-07-29T05:19:54;3.83;;;2.47;;
11598;SDS011;5855;48.840;9.188;2023-07-29T05:22:23;4.25;;;2.38;;
11598;SDS011;5855;48.840;9.188;2023-07-29T05:24:50;4.90;;;2.50;;
11598;SDS011;5855;48.840;9.188;2023-07-29T05:27:16;3.95;;;2.40;;
11598;SDS011;5855;48.840;9.188;2023-07-29T05:29:43;2.40;;;2.20;;
11598;SDS011;5855;48.840;9.188;2023-07-29T05:32:10;4.28;;;2.38;;
11598;SDS011;5855;48.840;9.188;2023-07-29T05:34:37;8.63;;;2.58;;
11598;SDS011;5855;48.840;9.188;2023-07-29T05:37:04;4.57;;;2.88;;
11598;SDS011;5855;48.840;9.188;2023-07-29T05:39:32;3.20;;;2.40;;
11598;SDS011;5855;48.840;9.188;2023-07-29T05:41:59;2.92;;;2.50;;
11598;SDS011;5855;48.840;9.188;2023-07-29T05:44:27;2.60;;;2.40;;
11598;SDS011;5855;48.840;9.188;2023-07-29T05:46:55;2.72;;;2.35;;
11598;SDS011;5855;48.840;9.188;2023-07-29T05:49:22;4.30;;;2.50;;
11598;SDS011;5855;48.840;9.188;2023-07-29T05:51:49;6.13;;;2.38;;
11598;SDS011;5855;48.840;9.188;2023-07-29T05:54:18;4.82;;;2.40;;
11598;SDS011;5855;48.840;9.188;2023-07-29T05:56:46;4.32;;;2.65;;
11598;SDS011;5855;48.840;9.188;2023-07-29T05:59:13;5.13;;;2.33;;
11598;SDS011;5855;48.840;9.188;2023-07-29T06:01:40;4.63;;;2.40;;
11598;SDS011;5855;48.840;9.188;2023-07-29T06:04:06;3.35;;;2.65;;
11598;SDS011;5855;48.840;9.188;2023-07-29T06:06:33;2.30;;;2.10;;
11598;SDS011;5855;48.840;9.188;2023-07-29T06:09:00;2.70;;;2.10;;
11598;SDS011;5855;48.840;9.188;2023-07-29T06:11:27;3.38;;;2.35;;
11598;SDS011;5855;48.840;9.188;2023-07-29T06:13:55;4.35;;;2.20;;
11598;SDS011;5855;48.840;9.188;2023-07-29T06:16:22;3.53;;;2.30;;
11598;SDS011;5855;48.840;9.188;2023-07-29T06:18:49;3.67;;;2.25;;
11598;SDS011;5855;48.840;9.188;2023-07-29T06:21:17;4.25;;;2.08;;
11598;SDS011;5855;48.840;9.188;2023-07-29T06:23:45;3.22;;;2.20;;
11598;SDS011;5855;48.840;9.188;2023-07-29T06:26:12;2.55;;;2.25;;
11598;SDS011;5855;48.840;9.188;2023-07-29T06:28:39;3.50;;;2.40;;
11598;SDS011;5855;48.840;9.188;2023-07-29T06:31:07;4.05;;;2.20;;
11598;SDS011;5855;48.840;9.188;2023-07-29T06:33:34;3.00;;;2.20;;
11598;SDS011;5855;48.840;9.188;2023-07-29T06:36:00;4.07;;;2.25;;
11598;SDS011;5855;48.840;9.188;2023-07-29T06:38:27;3.78;;;2.40;;
11598;SDS011;5855;48.840;9.188;2023-07-29T06:40:54;3.15;;;2.25;;
11598;SDS011;5855;48.840;9.188;2023-07-29T06:43:21;2.65;;;2.30;;
11598;SDS011;5855;48.840;9.188;2023-07-29T06:45:48;4.32;;;2.00;;
11598;SDS011;5855;48.840;9.188;2023-07-29T06:48:16;2.10;;;1.90;;
11598;SDS011;5855;48.840;9.188;2023-07-29T06:50:43;4.80;;;2.13;;
11598;SDS011;5855;48.840;9.188;2023-07-29T06:53:10;5.22;;;2.50;;
11598;SDS011;5855;48.840;9.188;2023-07-29T06:55:37;4.22;;;2.25;;
11598;SDS011;5855;48.840;9.188;2023-07-29T06:58:04;2.38;;;1.95;;
11598;SDS011;5855;48.840;9.188;2023-07-29T07:00:31;2.85;;;2.40;;
11598;SDS011;5855;48.840;9.188;2023-07-29T07:02:58;2.45;;;2.20;;
11598;SDS011;5855;48.840;9.188;2023-07-29T07:05:26;2.78;;;2.20;;
11598;SDS011;5855;48.840;9.188;2023-07-29T07:07:53;2.88;;;2.35;;
11598;SDS011;5855;48.840;9.188;2023-07-29T07:10:19;4.75;;;2.33;;
11598;SDS011;5855;48.840;9.188;2023-07-29T07:12:47;5.80;;;2.50;;
11598;SDS011;5855;48.840;9.188;2023-07-29T07:15:13;2.78;;;2.30;;
11598;SDS011;5855;48.840;9.188;2023-07-29T07:17:40;4.05;;;2.47;;
11598;SDS011;5855;48.840;9.188;2023-07-29T07:20:08;4.00;;;2.50;;
11598;SDS011;5855;48.840;9.188;2023-07-29T07:22:36;4.55;;;2.50;;
11598;SDS011;5855;48.840;9.188;2023-07-29T07:25:04;3.72;;;2.60;;
11598;SDS011;5855;48.840;9.188;2023-07-29T07:27:31;2.70;;;2.28;;
11598;SDS011;5855;48.840;9.188;2023-07-29T07:29:58;3.15;;;2.45;;
11598;SDS011;5855;48.840;9.188;2023-07-29T07:32:25;4.47;;;2.33;;
11598;SDS011;5855;48.840;9.188;2023-07-29T07:34:52;5.10;;;1.90;;
11598;SDS011;5855;48.840;9.188;2023-07-29T07:37:19;1.88;;;1.77;;
11598;SDS011;5855;48.840;9.188;2023-07-29T07:39:47;2.70;;;1.95;;
11598;SDS011;5855;48.840;9.188;2023-07-29T07:42:14;2.70;;;2.00;;
11598;SDS011;5855;48.840;9.188;2023-07-29T07:44:41;3.38;;;2.30;;
11598;SDS011;5855;48.840;9.188;2023-07-29T07:47:07;1.83;;;1.73;;
11598;SDS011;5855;48.840;9.188;2023-07-29T07:49:34;2.40;;;1.90;;
11598;SDS011;5855;48.840;9.188;2023-07-29T07:52:01;4.57;;;1.55;;
11598;SDS011;5855;48.840;9.188;2023-07-29T07:54:28;3.35;;;1.60;;
11598;SDS011;5855;48.840;9.188;2023-07-29T07:56:56;1.38;;;1.27;;
11598;SDS011;5855;48.840;9.188;2023-07-29T07:59:23;2.63;;;1.50;;
11598;SDS011;5855;48.840;9.188;2023-07-29T08:01:50;2.35;;;1.50;;
11598;SDS011;5855;48.840;9.188;2023-07-29T08:04:17;1.60;;;1.50;;
11598;SDS011;5855;48.840;9.188;2023-07-29T08:06:44;1.88;;;1.65;;
11598;SDS011;5855;48.840;9.188;2023-07-29T08:09:11;3.47;;;1.80;;
11598;SDS011;5855;48.840;9.188;2023-07-29T08:11:37;2.10;;;1.20;;
11598;SDS011;5855;48.840;9.188;2023-07-29T08:14:05;1.30;;;1.05;;
11598;SDS011;5855;48.840;9.188;2023-07-29T08:16:32;1.50;;;1.20;;
11598;SDS011;5855;48.840;9.188;2023-07-29T08:18:59;2.10;;;1.50;;
11598;SDS011;5855;48.840;9.188;2023-07-29T08:21:26;1.30;;;1.20;;
11598;SDS011;5855;48.840;9.188;2023-07-29T08:23:53;3.92;;;1.40;;
11598;SDS011;5855;48.840;9.188;2023-07-29T08:26:20;1.67;;;1.42;;
11598;SDS011;5855;48.840;9.188;2023-07-29T08:28:48;1.33;;;1.10;;
11598;SDS011;5855;48.840;9.188;2023-07-29T08:31:16;2.25;;;1.17;;
11598;SDS011;5855;48.840;9.188;2023-07-29T08:33:43;1.30;;;1.17;;
11598;SDS011;5855;48.840;9.188;2023-07-29T08:36:09;1.40;;;1.25;;
11598;SDS011;5855;48.840;9.188;2023-07-29T08:38:36;1.48;;;1.30;;
11598;SDS011;5855;48.840;9.188;2023-07-29T08:41:06;1.92;;;1.30;;
11598;SDS011;5855;48.840;9.188;2023-07-29T08:43:41;2.78;;;1.48;;
11598;SDS011;5855;48.840;9.188;2023-07-29T08:46:15;1.50;;;1.40;;
11598;SDS011;5855;48.840;9.188;2023-07-29T08:48:43;1.33;;;1.20;;
11598;SDS011;5855;48.840;9.188;2023-07-29T08:51:10;2.65;;;1.10;;
11598;SDS011;5855;48.840;9.188;2023-07-29T08:53:37;1.30;;;1.20;;
11598;SDS011;5855;48.840;9.188;2023-07-29T08:56:07;1.45;;;1.23;;
11598;SDS011;5855;48.840;9.188;2023-07-29T08:58:34;1.70;;;1.20;;
11598;SDS011;5855;48.840;9.188;2023-07-29T09:01:01;1.70;;;1.40;;
11598;SDS011;5855;48.840;9.188;2023-07-29T09:03:29;1.58;;;1.00;;
11598;SDS011;5855;48.840;9.188;2023-07-29T09:05:56;2.08;;;1.27;;
11598;SDS011;5855;48.840;9.188;2023-07-29T09:08:24;1.52;;;1.25;;
11598;SDS011;5855;48.840;9.188;2023-07-29T09:10:53;1.17;;;1.08;;
11598;SDS011;5855;48.840;9.188;2023-07-29T09:13:20;2.03;;;1.02;;
11598;SDS011;5855;48.840;9.188;2023-07-29T09:15:47;1.63;;;1.13;;
11598;SDS011;5855;48.840;9.188;2023-07-29T09:18:14;1.20;;;1.10;;
11598;SDS011;5855;48.840;9.188;2023-07-29T09:20:44;1.60;;;1.25;;
11598;SDS011;5855;48.840;9.188;2023-07-29T09:23:12;1.27;;;1.15;;
11598;SDS011;5855;48.840;9.188;2023-07-29T09:25:39;1.05;;;1.00;;
11598;SDS011;5855;48.840;9.188;2023-07-29T09:28:10;1.63;;;1.00;;
11598;SDS011;5855;48.840;9.188;2023-07-29T09:30:37;1.08;;;0.90;;
11598;SDS011;5855;48.840;9.188;2023-07-29T09:33:04;1.42;;;1.10;;
11598;SDS011;5855;48.840;9.188;2023-07-29T09:35:33;2.65;;;1.10;;
11598;SDS011;5855;48.840;9.188;2023-07-29T09:38:02;1.40;;;1.00;;
11598;SDS011;5855;48.840;9.188;2023-07-29T09:40:33;1.00;;;0.95;;
11598;SDS011;5855;48.840;9.188;2023-07-29T09:43:02;1.95;;;1.13;;
11598;SDS011;5855;48.840;9.188;2023-07-29T09:45:30;0.90;;;0.90;;
11598;SDS011;5855;48.840;9.188;2023-07-29T09:48:02;2.33;;;1.20;;
11598;SDS011;5855;48.840;9.188;2023-07-29T09:50:34;1.30;;;1.20;;
11598;SDS011;5855;48.840;9.188;2023-07-29T09:53:02;1.85;;;1.17;;
11598;SDS011;5855;48.840;9.188;2023-07-29T09:55:32;2.47;;;1.15;;
11598;SDS011;5855;48.840;9.188;2023-07-29T09:58:00;1.00;;;1.00;;
11598;SDS011;5855;48.840;9.188;2023-07-29T10:00:29;1.05;;;1.05;;
11598;SDS011;5855;48.840;9.188;2023-07-29T10:02:57;1.42;;;1.10;;
11598;SDS011;5855;48.840;9.188;2023-07-29T10:05:26;1.23;;;1.13;;
11598;SDS011;5855;48.840;9.188;2023-07-29T10:07:54;1.67;;;1.40;;
11598;SDS011;5855;48.840;9.188;2023-07-29T10:10:23;1.63;;;1.20;;
11598;SDS011;5855;48.840;9.188;2023-07-29T10:12:50;4.07;;;1.40;;
11598;SDS011;5855;48.840;9.188;2023-07-29T10:15:18;1.42;;;1.10;;
11598;SDS011;5855;48.840;9.188;2023-07-29T10:17:45;1.25;;;1.02;;
11598;SDS011;5855;48.840;9.188;2023-07-29T10:20:12;1.80;;;1.20;;
11598;SDS011;5855;48.840;9.188;2023-07-29T10:22:40;1.67;;;0.90;;
11598;SDS011;5855;48.840;9.188;2023-07-29T10:25:08;1.25;;;1.00;;
11598;SDS011;5855;48.840;9.188;2023-07-29T10:27:45;0.80;;;0.80;;
11598;SDS011;5855;48.840;9.188;2023-07-29T10:30:14;2.67;;;0.98;;
11598;SDS011;5855;48.840;9.188;2023-07-29T10:32:41;0.80;;;0.80;;
11598;SDS011;5855;48.840;9.188;2023-07-29T10:35:09;1.48;;;0.90;;
11598;SDS011;5855;48.840;9.188;2023-07-29T10:37:37;0.90;;;0.90;;
11598;SDS011;5855;48.840;9.188;2023-07-29T10:40:06;1.00;;;1.00;;
11598;SDS011;5855;48.840;9.188;2023-07-29T10:42:34;1.13;;;1.02;;
11598;SDS011;5855;48.840;9.188;2023-07-29T10:45:16;2.05;;;1.10;;
11598;SDS011;5855;48.840;9.188;2023-07-29T10:47:44;2.92;;;1.10;;
11598;SDS011;5855;48.840;9.188;2023-07-29T10:50:16;1.20;;;1.10;;
11598;SDS011;5855;48.840;9.188;2023-07-29T10:52:48;1.20;;;1.10;;
11598;SDS011;5855;48.840;9.188;2023-07-29T10:55:24;1.20;;;0.90;;
11598;SDS011;5855;48.840;9.188;2023-07-29T10:57:52;1.55;;;1.10;;
11598;SDS011;5855;48.840;9.188;2023-07-29T11:00:32;1.05;;;0.90;;
11598;SDS011;5855;48.840;9.188;2023-07-29T11:02:59;1.10;;;0.93;;
11598;SDS011;5855;48.840;9.188;2023-07-29T11:05:41;1.38;;;1.10;;
11598;SDS011;5855;48.840;9.188;2023-07-29T11:08:16;0.98;;;0.98;;
11598;SDS011;5855;48.840;9.188;2023-07-29T11:10:43;2.58;;;1.02;;
11598;SDS011;5855;48.840;9.188;2023-07-29T11:13:10;1.10;;;1.05;;
11598;SDS011;5855;48.840;9.188;2023-07-29T11:15:40;1.83;;;1.10;;
11598;SDS011;5855;48.840;9.188;2023-07-29T11:18:07;1.48;;;1.13;;
11598;SDS011;5855;48.840;9.188;2023-07-29T11:20:36;1.85;;;1.02;;
11598;SDS011;5855;48.840;9.188;2023-07-29T11:23:03;2.15;;;1.10;;
11598;SDS011;5855;48.840;9.188;2023-07-29T11:25:31;1.75;;;1.08;;
11598;SDS011;5855;48.840;9.188;2023-07-29T11:27:59;1.50;;;0.85;;
11598;SDS011;5855;48.840;9.188;2023-07-29T11:30:26;1.10;;;1.00;;
11598;SDS011;5855;48.840;9.188;2023-07-29T11:32:56;0.88;;;0.88;;
11598;SDS011;5855;48.840;9.188;2023-07-29T11:35:24;1.10;;;0.90;;
11598;SDS011;5855;48.840;9.188;2023-07-29T11:37:52;1.45;;;0.90;;
11598;SDS011;5855;48.840;9.188;2023-07-29T11:40:21;1.20;;;1.10;;
11598;SDS011;5855;48.840;9.188;2023-07-29T11:42:51;1.42;;;1.00;;
11598;SDS011;5855;48.840;9.188;2023-07-29T11:45:19;0.95;;;0.90;;
11598;SDS011;5855;48.840;9.188;2023-07-29T11:47:47;0.82;;;0.82;;
11598;SDS011;5855;48.840;9.188;2023-07-29T11:50:15;1.13;;;1.02;;
11598;SDS011;5855;48.840;9.188;2023-07-29T11:52:42;1.90;;;1.05;;
11598;SDS011;5855;48.840;9.188;2023-07-29T11:55:11;1.20;;;1.10;;
11598;SDS011;5855;48.840;9.188;2023-07-29T11:57:39;1.30;;;1.20;;
11598;SDS011;5855;48.840;9.188;2023-07-29T12:00:08;1.13;;;1.02;;
11598;SDS011;5855;48.840;9.188;2023-07-29T12:02:37;1.08;;;1.05;;
11598;SDS011;5855;48.840;9.188;2023-07-29T12:05:05;2.20;;;1.30;;
11598;SDS011;5855;48.840;9.188;2023-07-29T12:07:35;1.25;;;1.15;;
11598;SDS011;5855;48.840;9.188;2023-07-29T12:10:04;1.60;;;1.17;;
11598;SDS011;5855;48.840;9.188;2023-07-29T12:12:32;1.52;;;1.13;;
11598;SDS011;5855;48.840;9.188;2023-07-29T12:14:59;0.95;;;0.95;;
11598;SDS011;5855;48.840;9.188;2023-07-29T12:17:26;1.92;;;1.20;;
11598;SDS011;5855;48.840;9.188;2023-07-29T12:19:54;1.30;;;1.20;;
11598;SDS011;5855;48.840;9.188;2023-07-29T12:22:21;1.27;;;1.25;;
11598;SDS011;5855;48.840;9.188;2023-07-29T12:24:50;1.15;;;1.10;;
11598;SDS011;5855;48.840;9.188;2023-07-29T12:27:18;1.30;;;1.20;;
11598;SDS011;5855;48.840;9.188;2023-07-29T12:29:48;1.50;;;1.38;;
11598;SDS011;5855;48.840;9.188;2023-07-29T12:32:18;1.55;;;1.20;;
11598;SDS011;5855;48.840;9.188;2023-07-29T12:34:45;1.40;;;1.20;;
11598;SDS011;5855;48.840;9.188;2023-07-29T12:37:11;1.85;;;1.20;;
11598;SDS011;5855;48.840;9.188;2023-07-29T12:39:39;2.97;;;1.63;;
11598;SDS011;5855;48.840;9.188;2023-07-29T12:42:08;2.72;;;1.30;;
11598;SDS011;5855;48.840;9.188;2023-07-29T12:44:36;2.42;;;1.20;;
11598;SDS011;5855;48.840;9.188;2023-07-29T12:47:04;1.48;;;1.35;;
11598;SDS011;5855;48.840;9.188;2023-07-29T12:49:33;1.88;;;1.23;;
11598;SDS011;5855;48.840;9.188;2023-07-29T12:52:00;2.47;;;1.40;;
11598;SDS011;5855;48.840;9.188;2023-07-29T12:54:27;1.40;;;1.30;;
11598;SDS011;5855;48.840;9.188;2023-07-29T12:56:54;1.65;;;1.23;;
11598;SDS011;5855;48.840;9.188;2023-07-29T12:59:22;2.95;;;1.40;;
11598;SDS011;5855;48.840;9.188;2023-07-29T13:01:49;1.30;;;1.20;;
11598;SDS011;5855;48.840;9.188;2023-07-29T13:04:16;1.42;;;1.30;;
11598;SDS011;5855;48.840;9.188;2023-07-29T13:06:43;1.70;;;1.27;;
11598;SDS011;5855;48.840;9.188;2023-07-29T13:09:09;2.53;;;1.20;;
11598;SDS011;5855;48.840;9.188;2023-07-29T13:11:36;3.58;;;1.33;;
11598;SDS011;5855;48.840;9.188;2023-07-29T13:14:03;1.83;;;1.20;;
11598;SDS011;5855;48.840;9.188;2023-07-29T13:16:31;1.45;;;1.15;;
11598;SDS011;5855;48.840;9.188;2023-07-29T13:18:58;1.13;;;1.02;;
11598;SDS011;5855;48.840;9.188;2023-07-29T13:21:25;1.65;;;1.10;;
11598;SDS011;5855;48.840;9.188;2023-07-29T13:23:51;1.17;;;1.02;;
11598;SDS011;5855;48.840;9.188;2023-07-29T13:26:18;2.00;;;1.52;;
11598;SDS011;5855;48.840;9.188;2023-07-29T13:28:45;1.42;;;1.20;;
11598;SDS011;5855;48.840;9.188;2023-07-29T13:31:12;1.27;;;1.17;;
11598;SDS011;5855;48.840;9.188;2023-07-29T13:33:40;1.42;;;1.08;;
11598;SDS011;5855;48.840;9.188;2023-07-29T13:36:07;1.30;;;1.20;;
11598;SDS011;5855;48.840;9.188;2023-07-29T13:38:34;2.92;;;1.20;;
11598;SDS011;5855;48.840;9.188;2023-07-29T13:41:01;1.30;;;1.20;;
11598;SDS011;5855;48.840;9.188;2023-07-29T13:43:27;1.35;;;1.10;;
11598;SDS011;5855;48.840;9.188;2023-07-29T13:45:54;1.40;;;1.30;;
11598;SDS011;5855;48.840;9.188;2023-07-29T13:48:21;1.35;;;1.25;;
11598;SDS011;5855;48.840;9.188;2023-07-29T13:50:49;1.55;;;1.40;;
11598;SDS011;5855;48.840;9.188;2023-07-29T13:53:17;1.60;;;1.50;;
11598;SDS011;5855;48.840;9.188;2023-07-29T13:55:44;1.50;;;1.40;;
11598;SDS011;5855;48.840;9.188;2023-07-29T13:58:11;1.60;;;1.45;;
11598;SDS011;5855;48.840;9.188;2023-07-29T14:00:37;1.40;;;1.30;;
11598;SDS011;5855;48.840;9.188;2023-07-29T14:03:04;4.50;;;3.08;;
11598;SDS011;5855;48.840;9.188;2023-07-29T14:05:31;2.95;;;1.85;;
11598;SDS011;5855;48.840;9.188;2023-07-29T14:07:59;3.15;;;2.30;;
11598;SDS011;5855;48.840;9.188;2023-07-29T14:10:26;5.55;;;4.18;;
11598;SDS011;5855;48.840;9.188;2023-07-29T14:12:53;4.85;;;3.13;;
11598;SDS011;5855;48.840;9.188;2023-07-29T14:15:20;3.72;;;2.05;;
11598;SDS011;5855;48.840;9.188;2023-07-29T14:17:47;4.38;;;2.65;;
11598;SDS011;5855;48.840;9.188;2023-07-29T14:20:14;3.28;;;2.97;;
11598;SDS011;5855;48.840;9.188;2023-07-29T14:22:41;2.63;;;2.03;;
11598;SDS011;5855;48.840;9.188;2023-07-29T14:25:09;2.83;;;2.63;;
11598;SDS011;5855;48.840;9.188;2023-07-29T14:27:36;3.55;;;3.25;;
11598;SDS011;5855;48.840;9.188;2023-07-29T14:30:04;2.97;;;2.78;;
11598;SDS011;5855;48.840;9.188;2023-07-29T14:32:32;1.40;;;1.30;;
11598;SDS011;5855;48.840;9.188;2023-07-29T14:34:58;1.88;;;1.70;;
11598;SDS011;5855;48.840;9.188;2023-07-29T14:37:28;1.45;;;1.35;;
11598;SDS011;5855;48.840;9.188;2023-07-29T14:39:55;3.10;;;2.42;;
11598;SDS011;5855;48.840;9.188;2023-07-29T14:42:23;2.10;;;1.90;;
11598;SDS011;5855;48.840;9.188;2023-07-29T14:44:50;1.83;;;1.73;;
11598;SDS011;5855;48.840;9.188;2023-07-29T14:47:17;2.00;;;1.80;;
11598;SDS011;5855;48.840;9.188;2023-07-29T14:49:44;1.90;;;1.80;;
11598;SDS011;5855;48.840;9.188;2023-07-29T14:52:11;1.60;;;1.50;;
11598;SDS011;5855;48.840;9.188;2023-07-29T14:54:38;1.73;;;1.63;;
11598;SDS011;5855;48.840;9.188;2023-07-29T14:57:05;2.40;;;2.20;;
11598;SDS011;5855;48.840;9.188;2023-07-29T14:59:34;6.22;;;4.28;;
11598;SDS011;5855;48.840;9.188;2023-07-29T15:02:01;7.03;;;4.35;;
11598;SDS011;5855;48.840;9.188;2023-07-29T15:04:28;3.97;;;2.38;;